createdAt,value
2017-08-05T00:00:13.659Z,98541.45
2017-08-05T00:02:42.967Z,98533.84
2017-08-05T00:05:12.468Z,98529.14
2017-08-05T00:07:41.762Z,98530.73
2017-08-05T00:10:11.242Z,98546.04
2017-08-05T00:12:40.681Z,98544.39
2017-08-05T00:15:10.203Z,98542.28
2017-08-05T00:17:39.649Z,98542.84
2017-08-05T00:20:09.156Z,98535.63
2017-08-05T00:22:38.624Z,98546.34
2017-08-05T00:25:08.140Z,98547.86
2017-08-05T00:27:37.571Z,98553.43
2017-08-05T00:30:07.061Z,98554.38
2017-08-05T00:32:36.522Z,98556.68
2017-08-05T00:35:06.037Z,98559.45
2017-08-05T00:37:35.499Z,98565.31
2017-08-05T00:40:05.005Z,98570.81
2017-08-05T00:42:34.453Z,98568.73
2017-08-05T00:45:03.971Z,98567.44
2017-08-05T00:47:33.409Z,98565.61
2017-08-05T00:50:02.928Z,98563.94
2017-08-05T00:52:32.378Z,98581.56
2017-08-05T00:55:01.959Z,98579.55
2017-08-05T00:57:31.436Z,98589.25
2017-08-05T01:00:00.912Z,98589.66
2017-08-05T01:02:30.232Z,98595.91
2017-08-05T01:04:59.697Z,98585.96
2017-08-05T01:07:29.262Z,98580.38
2017-08-05T01:09:58.718Z,98578.19
2017-08-05T01:12:28.190Z,98573.23
2017-08-05T01:14:57.660Z,98576.37
2017-08-05T01:17:27.109Z,98578.51
2017-08-05T01:19:56.570Z,98581.09
2017-08-05T01:22:26.060Z,98587.08
2017-08-05T01:24:55.514Z,98582.87
2017-08-05T01:27:24.945Z,98593.88
2017-08-05T01:29:54.396Z,98587.81
2017-08-05T01:32:23.832Z,98600.28
2017-08-05T01:34:53.285Z,98595.83
2017-08-05T01:37:22.734Z,98593.95
2017-08-05T01:39:52.180Z,98599.65
2017-08-05T01:42:21.609Z,98597.67
2017-08-05T01:44:51.117Z,98593.00
2017-08-05T01:47:20.569Z,98593.17
2017-08-05T01:49:49.692Z,98589.19
2017-08-05T01:52:19.147Z,98590.27
2017-08-05T01:54:48.589Z,98588.70
2017-08-05T01:57:18.035Z,98591.87
2017-08-05T01:59:48.424Z,98590.66
2017-08-05T02:02:17.865Z,98593.41
2017-08-05T02:04:47.321Z,98600.94
2017-08-05T02:07:16.764Z,98601.25
2017-08-05T02:09:46.221Z,98609.73
2017-08-05T02:12:15.662Z,98610.80
2017-08-05T02:14:45.105Z,98606.18
2017-08-05T02:17:14.547Z,98606.67
2017-08-05T02:19:43.990Z,98612.95
2017-08-05T02:22:13.434Z,98609.83
2017-08-05T02:24:42.900Z,98606.08
2017-08-05T02:27:12.348Z,98603.73
2017-08-05T02:29:41.797Z,98601.64
2017-08-05T02:32:11.247Z,98602.86
2017-08-05T02:34:40.686Z,98609.33
2017-08-05T02:37:10.157Z,98616.34
2017-08-05T02:39:45.611Z,98617.81
2017-08-05T02:42:15.756Z,98624.03
2017-08-05T02:44:45.036Z,98622.25
2017-08-05T02:47:14.484Z,98617.32
2017-08-05T02:49:43.935Z,98609.48
2017-08-05T02:52:13.369Z,98611.67
2017-08-05T02:54:42.822Z,98600.28
2017-08-05T02:57:12.290Z,98600.84
2017-08-05T02:59:41.725Z,98611.20
2017-08-05T03:02:11.164Z,98606.44
2017-08-05T03:04:40.620Z,98609.73
2017-08-05T03:07:10.055Z,98605.97
2017-08-05T03:09:39.496Z,98606.19
2017-08-05T03:12:08.956Z,98606.19
2017-08-05T03:14:38.413Z,98608.45
2017-08-05T03:17:07.847Z,98608.67
2017-08-05T03:19:37.302Z,98618.22
2017-08-05T03:22:06.775Z,98630.39
2017-08-05T03:24:36.251Z,98633.06
2017-08-05T03:27:05.773Z,98630.13
2017-08-05T03:29:35.205Z,98630.52
2017-08-05T03:32:04.668Z,98625.52
2017-08-05T03:34:34.125Z,98631.89
2017-08-05T03:37:03.568Z,98633.92
2017-08-05T03:39:33.013Z,98631.79
2017-08-05T03:42:02.475Z,98636.16
2017-08-05T03:44:31.953Z,98638.20
2017-08-05T03:47:01.485Z,98642.89
2017-08-05T03:49:30.926Z,98639.98
2017-08-05T03:52:00.376Z,98641.45
2017-08-05T03:54:29.827Z,98646.55
2017-08-05T03:56:59.285Z,98643.39
2017-08-05T03:59:28.714Z,98634.59
2017-08-05T04:01:58.169Z,98638.30
2017-08-05T04:04:27.612Z,98639.11
2017-08-05T04:06:57.070Z,98640.70
2017-08-05T04:09:26.507Z,98635.86
2017-08-05T04:11:55.957Z,98634.80
2017-08-05T04:14:25.421Z,98636.72
2017-08-05T04:16:54.676Z,98633.56
2017-08-05T04:19:24.184Z,98627.52
2017-08-05T04:21:53.625Z,98632.25
2017-08-05T04:24:23.068Z,98632.48
2017-08-05T04:26:52.512Z,98620.81
2017-08-05T04:29:21.964Z,98624.66
2017-08-05T04:31:51.426Z,98624.33
2017-08-05T04:34:20.880Z,98623.14
2017-08-05T04:36:50.343Z,98619.92
2017-08-05T04:39:19.768Z,98622.27
2017-08-05T04:41:49.237Z,98625.31
2017-08-05T04:44:18.684Z,98626.17
2017-08-05T04:46:48.129Z,98631.77
2017-08-05T04:49:17.593Z,98643.24
2017-08-05T04:51:47.031Z,98641.69
2017-08-05T04:54:16.473Z,98644.05
2017-08-05T04:56:45.920Z,98644.00
2017-08-05T04:59:15.373Z,98645.16
2017-08-05T05:01:44.822Z,98651.19
2017-08-05T05:04:14.282Z,98651.70
2017-08-05T05:06:43.718Z,98648.86
2017-08-05T05:09:13.166Z,98649.63
2017-08-05T05:11:42.609Z,98641.33
2017-08-05T05:14:12.044Z,98643.45
2017-08-05T05:16:41.488Z,98644.35
2017-08-05T05:19:10.943Z,98645.59
2017-08-05T05:21:40.384Z,98646.34
2017-08-05T05:24:09.839Z,98634.83
2017-08-05T05:26:39.276Z,98641.41
2017-08-05T05:29:08.729Z,98644.95
2017-08-05T05:31:38.168Z,98645.28
2017-08-05T05:34:07.662Z,98647.13
2017-08-05T05:36:37.091Z,98647.33
2017-08-05T05:39:06.616Z,98651.50
2017-08-05T05:41:36.059Z,98645.42
2017-08-05T05:44:05.513Z,98643.78
2017-08-05T05:46:34.967Z,98655.94
2017-08-05T05:49:04.416Z,98650.72
2017-08-05T05:51:33.845Z,98659.62
2017-08-05T05:54:03.292Z,98662.66
2017-08-05T05:56:32.756Z,98665.19
2017-08-05T05:59:02.200Z,98671.49
2017-08-05T06:01:31.632Z,98678.59
2017-08-05T06:04:01.072Z,98672.39
2017-08-05T06:06:30.513Z,98670.38
2017-08-05T06:08:59.947Z,98666.54
2017-08-05T06:11:29.456Z,98674.05
2017-08-05T06:13:58.932Z,98677.20
2017-08-05T06:16:28.396Z,98677.98
2017-08-05T06:18:57.877Z,98671.94
2017-08-05T06:21:27.352Z,98675.72
2017-08-05T06:23:56.787Z,98674.48
2017-08-05T06:26:26.265Z,98672.09
2017-08-05T06:28:55.701Z,98678.36
2017-08-05T06:31:25.164Z,98679.88
2017-08-05T06:33:54.619Z,98674.92
2017-08-05T06:36:24.060Z,98676.91
2017-08-05T06:38:53.510Z,98672.10
2017-08-05T06:41:22.951Z,98666.77
2017-08-05T06:43:52.392Z,98663.80
2017-08-05T06:46:21.832Z,98667.36
2017-08-05T06:48:51.283Z,98665.66
2017-08-05T06:51:20.720Z,98658.89
2017-08-05T06:53:50.169Z,98655.47
2017-08-05T06:56:19.630Z,98657.00
2017-08-05T06:58:49.073Z,98661.50
2017-08-05T07:01:20.247Z,98662.80
2017-08-05T07:03:49.802Z,98668.98
2017-08-05T07:06:19.245Z,98660.87
2017-08-05T07:08:48.713Z,98667.67
2017-08-05T07:11:18.151Z,98671.43
2017-08-05T07:13:47.608Z,98662.67
2017-08-05T07:16:17.092Z,98661.42
2017-08-05T07:18:46.552Z,98659.22
2017-08-05T07:21:16.001Z,98664.71
2017-08-05T07:23:45.503Z,98668.89
2017-08-05T07:26:14.937Z,98656.77
2017-08-05T07:28:44.371Z,98659.42
2017-08-05T07:31:13.810Z,98653.92
2017-08-05T07:33:43.252Z,98655.28
2017-08-05T07:36:12.552Z,98656.95
2017-08-05T07:38:41.986Z,98652.30
2017-08-05T07:41:11.433Z,98648.49
2017-08-05T07:43:40.886Z,98652.37
2017-08-05T07:46:10.320Z,98644.09
2017-08-05T07:48:39.756Z,98637.14
2017-08-05T07:51:09.205Z,98635.20
2017-08-05T07:53:38.661Z,98640.96
2017-08-05T07:56:08.107Z,98631.95
2017-08-05T07:58:37.653Z,98630.22
2017-08-05T08:01:07.113Z,98630.66
2017-08-05T08:03:36.575Z,98623.26
2017-08-05T08:06:06.012Z,98628.71
2017-08-05T08:08:35.469Z,98627.73
2017-08-05T08:11:04.920Z,98622.59
2017-08-05T08:13:34.369Z,98626.00
2017-08-05T08:16:03.831Z,98626.33
2017-08-05T08:18:33.270Z,98619.45
2017-08-05T08:21:02.705Z,98619.02
2017-08-05T08:23:32.150Z,98625.08
2017-08-05T08:26:01.606Z,98622.44
2017-08-05T08:28:31.027Z,98614.63
2017-08-05T08:31:00.483Z,98621.87
2017-08-05T08:33:29.976Z,98622.13
2017-08-05T08:35:59.422Z,98621.75
2017-08-05T08:38:28.865Z,98620.95
2017-08-05T08:40:58.320Z,98624.28
2017-08-05T08:43:27.753Z,98619.42
2017-08-05T08:45:57.221Z,98620.23
2017-08-05T08:48:26.701Z,98620.61
2017-08-05T08:50:56.166Z,98621.94
2017-08-05T08:53:25.639Z,98622.77
2017-08-05T08:55:55.185Z,98628.91
2017-08-05T08:58:24.655Z,98626.24
2017-08-05T09:00:54.147Z,98621.16
2017-08-05T09:03:23.669Z,98621.16
2017-08-05T09:05:53.138Z,98621.98
2017-08-05T09:08:22.576Z,98624.56
2017-08-05T09:10:52.031Z,98620.02
2017-08-05T09:13:21.480Z,98618.34
2017-08-05T09:15:50.956Z,98621.98
2017-08-05T09:18:20.401Z,98622.91
2017-08-05T09:20:49.851Z,98617.97
2017-08-05T09:23:19.297Z,98620.67
2017-08-05T09:25:48.778Z,98615.66
2017-08-05T09:28:18.283Z,98620.25
2017-08-05T09:30:47.735Z,98615.69
2017-08-05T09:33:17.190Z,98606.32
2017-08-05T09:35:46.634Z,98600.58
2017-08-05T09:38:16.076Z,98605.05
2017-08-05T09:40:45.565Z,98600.00
2017-08-05T09:43:15.009Z,98593.52
2017-08-05T09:45:44.530Z,98589.23
2017-08-05T09:48:14.068Z,98588.66
2017-08-05T09:50:43.527Z,98587.69
2017-08-05T09:53:12.989Z,98588.45
2017-08-05T09:55:42.428Z,98590.58
2017-08-05T09:58:11.888Z,98590.95
2017-08-05T10:00:41.332Z,98587.80
2017-08-05T10:03:10.769Z,98581.62
2017-08-05T10:05:40.229Z,98589.91
2017-08-05T10:08:09.701Z,98584.63
2017-08-05T10:10:39.185Z,98587.59
2017-08-05T10:13:08.632Z,98588.76
2017-08-05T10:15:38.107Z,98585.44
2017-08-05T10:18:07.548Z,98579.65
2017-08-05T10:20:36.990Z,98577.37
2017-08-05T10:23:06.447Z,98574.78
2017-08-05T10:25:35.890Z,98570.26
2017-08-05T10:28:05.326Z,98568.92
2017-08-05T10:30:34.900Z,98563.84
2017-08-05T10:33:04.339Z,98562.06
2017-08-05T10:35:33.823Z,98564.31
2017-08-05T10:38:03.252Z,98569.56
2017-08-05T10:40:32.709Z,98568.08
2017-08-05T10:43:02.153Z,98568.25
2017-08-05T10:45:31.610Z,98559.69
2017-08-05T10:48:01.044Z,98560.59
2017-08-05T10:50:30.487Z,98564.65
2017-08-05T10:52:59.966Z,98552.28
2017-08-05T10:55:29.398Z,98557.57
2017-08-05T10:57:58.967Z,98548.92
2017-08-05T11:00:29.095Z,98544.59
2017-08-05T11:02:58.369Z,98538.66
2017-08-05T11:05:27.818Z,98539.23
2017-08-05T11:07:57.422Z,98547.64
2017-08-05T11:10:26.876Z,98539.47
2017-08-05T11:12:56.345Z,98539.06
2017-08-05T11:15:25.792Z,98533.85
2017-08-05T11:17:55.285Z,98531.90
2017-08-05T11:20:24.716Z,98531.66
2017-08-05T11:22:54.271Z,98527.30
2017-08-05T11:25:23.757Z,98526.28
2017-08-05T11:27:53.233Z,98516.11
2017-08-05T11:30:22.698Z,98512.70
2017-08-05T11:35:30.720Z,98501.49
2017-08-05T11:38:00.156Z,98500.77
2017-08-05T11:40:29.635Z,98498.78
2017-08-05T11:42:59.086Z,98495.15
2017-08-05T11:45:28.535Z,98492.34
2017-08-05T11:47:57.981Z,98484.22
2017-08-05T11:50:27.434Z,98488.38
2017-08-05T11:52:56.896Z,98489.58
2017-08-05T11:55:26.321Z,98496.98
2017-08-05T11:57:55.789Z,98497.78
2017-08-05T12:00:25.306Z,98488.41
2017-08-05T12:02:54.607Z,98491.62
2017-08-05T12:05:24.083Z,98488.00
2017-08-05T12:07:53.524Z,98490.55
2017-08-05T12:10:23.012Z,98485.98
2017-08-05T12:12:52.453Z,98486.78
2017-08-05T12:15:21.951Z,98491.78
2017-08-05T12:17:51.392Z,98486.34
2017-08-05T12:20:20.878Z,98494.00
2017-08-05T12:22:50.327Z,98489.00
2017-08-05T12:25:19.828Z,98489.66
2017-08-05T12:27:49.269Z,98486.36
2017-08-05T12:30:18.738Z,98479.79
2017-08-05T12:32:48.189Z,98472.52
2017-08-05T12:35:17.702Z,98485.91
2017-08-05T12:37:47.133Z,98480.92
2017-08-05T12:40:16.607Z,98479.34
2017-08-05T12:42:46.080Z,98478.10
2017-08-05T12:45:15.548Z,98469.42
2017-08-05T12:47:45.001Z,98468.06
2017-08-05T12:50:14.481Z,98465.73
2017-08-05T12:52:44.024Z,98468.22
2017-08-05T12:55:13.473Z,98467.56
2017-08-05T12:57:42.948Z,98469.45
2017-08-05T13:00:12.424Z,98454.56
2017-08-05T13:02:41.861Z,98450.20
2017-08-05T13:05:11.427Z,98449.90
2017-08-05T13:07:41.238Z,98445.52
2017-08-05T13:10:10.813Z,98451.46
2017-08-05T13:12:40.326Z,98452.66
2017-08-05T13:15:10.225Z,98446.33
2017-08-05T13:17:39.813Z,98443.43
2017-08-05T13:20:09.291Z,98448.95
2017-08-05T13:22:38.844Z,98444.48
2017-08-05T13:25:08.443Z,98441.23
2017-08-05T13:27:38.015Z,98438.87
2017-08-05T13:30:07.950Z,98450.79
2017-08-05T13:32:37.416Z,98438.77
2017-08-05T13:35:07.484Z,98438.92
2017-08-05T13:37:37.788Z,98435.86
2017-08-05T13:40:07.694Z,98434.14
2017-08-05T13:42:37.524Z,98438.50
2017-08-05T13:45:07.185Z,98426.14
2017-08-05T13:47:36.776Z,98432.41
2017-08-05T13:50:06.400Z,98426.84
2017-08-05T13:52:36.082Z,98429.94
2017-08-05T13:55:05.622Z,98428.64
2017-08-05T13:57:35.984Z,98417.80
2017-08-05T14:00:05.481Z,98425.95
2017-08-05T14:02:34.970Z,98416.63
2017-08-05T14:05:04.725Z,98418.34
2017-08-05T14:07:34.672Z,98421.86
2017-08-05T14:10:04.410Z,98416.90
2017-08-05T14:12:34.012Z,98416.65
2017-08-05T14:15:03.587Z,98419.95
2017-08-05T14:17:33.462Z,98422.64
2017-08-05T14:20:03.485Z,98412.84
2017-08-05T14:22:33.343Z,98417.46
2017-08-05T14:25:03.433Z,98421.33
2017-08-05T14:27:33.283Z,98421.23
2017-08-05T14:30:03.006Z,98414.56
2017-08-05T14:32:32.685Z,98411.91
2017-08-05T14:35:02.269Z,98404.59
2017-08-05T14:37:32.135Z,98410.95
2017-08-05T14:40:01.935Z,98411.06
2017-08-05T14:42:31.761Z,98418.42
2017-08-05T14:45:01.661Z,98409.39
2017-08-05T14:47:31.154Z,98408.42
2017-08-05T14:50:00.980Z,98406.63
2017-08-05T14:52:30.651Z,98400.28
2017-08-05T14:55:00.383Z,98400.80
2017-08-05T14:57:29.826Z,98397.70
2017-08-05T14:59:59.407Z,98392.72
2017-08-05T15:02:28.951Z,98398.16
2017-08-05T15:04:58.516Z,98391.09
2017-08-05T15:07:28.001Z,98385.58
2017-08-05T15:09:57.571Z,98388.77
2017-08-05T15:12:27.098Z,98393.27
2017-08-05T15:14:56.556Z,98377.07
2017-08-05T15:17:26.856Z,98384.61
2017-08-05T15:19:56.792Z,98389.14
2017-08-05T15:22:26.625Z,98386.77
2017-08-05T15:24:56.749Z,98378.31
2017-08-05T15:27:26.758Z,98384.68
2017-08-05T15:29:56.954Z,98384.25
2017-08-05T15:32:26.421Z,98385.09
2017-08-05T15:34:56.879Z,98374.21
2017-08-05T15:37:26.360Z,98373.16
2017-08-05T15:39:56.090Z,98378.32
2017-08-05T15:42:25.569Z,98381.05
2017-08-05T15:44:55.030Z,98377.52
2017-08-05T15:47:24.468Z,98375.39
2017-08-05T15:49:53.903Z,98376.66
2017-08-05T15:52:23.340Z,98363.22
2017-08-05T15:54:52.798Z,98366.51
2017-08-05T15:57:22.941Z,98367.52
2017-08-05T15:59:52.399Z,98364.14
2017-08-05T16:02:21.869Z,98358.37
2017-08-05T16:04:51.310Z,98353.57
2017-08-05T16:07:20.751Z,98348.84
2017-08-05T16:09:50.193Z,98345.69
2017-08-05T16:12:19.656Z,98344.48
2017-08-05T16:14:49.182Z,98343.96
2017-08-05T16:17:18.643Z,98347.83
2017-08-05T16:19:48.101Z,98351.59
2017-08-05T16:22:17.528Z,98353.36
2017-08-05T16:24:46.975Z,98354.67
2017-08-05T16:27:16.450Z,98351.94
2017-08-05T16:29:45.899Z,98354.85
2017-08-05T16:32:15.356Z,98358.16
2017-08-05T16:34:44.812Z,98356.79
2017-08-05T16:37:14.245Z,98353.53
2017-08-05T16:39:43.747Z,98356.93
2017-08-05T16:42:13.184Z,98351.12
2017-08-05T16:44:42.665Z,98346.45
2017-08-05T16:47:12.117Z,98346.11
2017-08-05T16:49:41.577Z,98346.99
2017-08-05T16:52:11.070Z,98342.33
2017-08-05T16:54:40.497Z,98339.44
2017-08-05T16:57:09.972Z,98342.43
2017-08-05T16:59:39.446Z,98334.29
2017-08-05T17:02:08.936Z,98342.27
2017-08-05T17:04:38.404Z,98344.70
2017-08-05T17:07:07.855Z,98347.25
2017-08-05T17:09:37.324Z,98345.42
2017-08-05T17:12:06.854Z,98338.94
2017-08-05T17:14:36.329Z,98341.63
2017-08-05T17:17:05.764Z,98343.23
2017-08-05T17:19:35.225Z,98351.39
2017-08-05T17:22:04.683Z,98349.38
2017-08-05T17:24:34.152Z,98352.43
2017-08-05T17:27:03.613Z,98353.07
2017-08-05T17:29:33.108Z,98346.47
2017-08-05T17:32:02.549Z,98354.21
2017-08-05T17:34:32.008Z,98356.92
2017-08-05T17:37:01.472Z,98359.81
2017-08-05T17:39:30.962Z,98357.59
2017-08-05T17:42:00.437Z,98355.81
2017-08-05T17:44:29.912Z,98362.77
2017-08-05T17:46:59.379Z,98360.75
2017-08-05T17:49:28.847Z,98360.30
2017-08-05T17:51:58.289Z,98364.84
2017-08-05T17:54:27.735Z,98374.97
2017-08-05T17:56:57.180Z,98378.52
2017-08-05T17:59:26.631Z,98373.27
2017-08-05T18:01:56.088Z,98371.52
2017-08-05T18:04:25.570Z,98362.28
2017-08-05T18:06:55.018Z,98369.84
2017-08-05T18:09:24.469Z,98357.38
2017-08-05T18:11:53.945Z,98359.26
2017-08-05T18:14:23.424Z,98359.95
2017-08-05T18:16:52.911Z,98363.34
2017-08-05T18:19:22.380Z,98367.81
2017-08-05T18:21:51.834Z,98369.25
2017-08-05T18:24:21.326Z,98377.80
2017-08-05T18:26:50.796Z,98376.58
2017-08-05T18:29:20.216Z,98368.86
2017-08-05T18:31:49.703Z,98372.08
2017-08-05T18:34:19.151Z,98375.30
2017-08-05T18:36:48.593Z,98383.41
2017-08-05T18:39:18.037Z,98389.17
2017-08-05T18:41:47.506Z,98390.98
2017-08-05T18:44:16.938Z,98394.20
2017-08-05T18:46:46.401Z,98396.73
2017-08-05T18:49:15.962Z,98404.76
2017-08-05T18:51:45.409Z,98409.25
2017-08-05T18:54:14.853Z,98396.14
2017-08-05T18:56:44.296Z,98402.30
2017-08-05T18:59:13.766Z,98407.14
2017-08-05T19:01:43.401Z,98415.96
2017-08-05T19:04:13.648Z,98428.94
2017-08-05T19:06:43.110Z,98452.05
2017-08-05T19:09:12.571Z,98450.52
2017-08-05T19:11:42.010Z,98444.50
2017-08-05T19:14:11.448Z,98449.55
2017-08-05T19:16:40.945Z,98452.05
2017-08-05T19:19:10.401Z,98448.88
2017-08-05T19:21:39.861Z,98452.85
2017-08-05T19:24:09.295Z,98445.20
2017-08-05T19:26:38.732Z,98440.16
2017-08-05T19:29:08.177Z,98438.47
2017-08-05T19:31:37.621Z,98441.55
2017-08-05T19:34:07.089Z,98446.90
2017-08-05T19:36:36.555Z,98447.75
2017-08-05T19:39:05.675Z,98447.76
2017-08-05T19:41:35.168Z,98437.59
2017-08-05T19:44:04.632Z,98445.95
2017-08-05T19:46:34.073Z,98443.95
2017-08-05T19:49:03.525Z,98439.81
2017-08-05T19:51:33.099Z,98443.78
2017-08-05T19:54:02.549Z,98458.49
2017-08-05T19:56:32.001Z,98451.33
2017-08-05T19:59:01.445Z,98459.52
2017-08-05T20:01:30.901Z,98466.14
2017-08-05T20:04:00.372Z,98477.28
2017-08-05T20:06:29.817Z,98475.44
2017-08-05T20:08:59.264Z,98480.92
2017-08-05T20:11:28.757Z,98492.85
2017-08-05T20:13:58.206Z,98497.70
2017-08-05T20:16:27.657Z,98507.45
2017-08-05T20:18:57.110Z,98511.09
2017-08-05T20:21:26.527Z,98516.92
2017-08-05T20:23:55.976Z,98521.88
2017-08-05T20:26:25.459Z,98520.81
2017-08-05T20:28:54.917Z,98522.13
2017-08-05T20:31:24.403Z,98519.73
2017-08-05T20:33:53.869Z,98515.13
2017-08-05T20:36:23.315Z,98518.59
2017-08-05T20:38:52.756Z,98519.88
2017-08-05T20:41:22.207Z,98520.75
2017-08-05T20:43:51.746Z,98519.10
2017-08-05T20:46:21.177Z,98514.45
2017-08-05T20:48:50.640Z,98520.86
2017-08-05T20:51:20.085Z,98518.53
2017-08-05T20:53:49.560Z,98511.30
2017-08-05T20:56:18.997Z,98521.89
2017-08-05T20:58:48.456Z,98515.06
2017-08-05T21:01:17.905Z,98514.55
2017-08-05T21:03:47.360Z,98515.70
2017-08-05T21:06:16.812Z,98501.46
2017-08-05T21:08:46.274Z,98497.59
2017-08-05T21:11:15.761Z,98485.08
2017-08-05T21:13:45.197Z,98483.25
2017-08-05T21:16:14.657Z,98478.44
2017-08-05T21:18:44.114Z,98476.13
2017-08-05T21:21:13.597Z,98466.40
2017-08-05T21:23:43.041Z,98461.19
2017-08-05T21:26:12.510Z,98464.24
2017-08-05T21:28:41.954Z,98471.54
2017-08-05T21:31:11.406Z,98475.53
2017-08-05T21:33:40.877Z,98465.98
2017-08-05T21:36:10.305Z,98469.27
2017-08-05T21:38:39.786Z,98464.50
2017-08-05T21:41:09.234Z,98473.88
2017-08-05T21:43:38.697Z,98483.31
2017-08-05T21:46:08.177Z,98477.38
2017-08-05T21:48:37.631Z,98476.80
2017-08-05T21:51:07.070Z,98486.50
2017-08-05T21:53:36.515Z,98483.06
2017-08-05T21:56:05.977Z,98472.33
2017-08-05T21:58:35.436Z,98472.83
2017-08-05T22:01:04.878Z,98476.65
2017-08-05T22:03:34.167Z,98467.39
2017-08-05T22:06:03.609Z,98465.16
2017-08-05T22:08:32.855Z,98445.23
2017-08-05T22:11:02.311Z,98445.97
2017-08-05T22:13:31.744Z,98431.58
2017-08-05T22:16:01.206Z,98433.13
2017-08-05T22:18:30.669Z,98424.63
2017-08-05T22:21:00.127Z,98426.16
2017-08-05T22:23:29.567Z,98433.98
2017-08-05T22:25:59.019Z,98451.62
2017-08-05T22:28:28.474Z,98457.11
2017-08-05T22:30:57.927Z,98460.46
2017-08-05T22:33:27.386Z,98458.20
2017-08-05T22:35:57.020Z,98445.93
2017-08-05T22:38:26.474Z,98442.30
2017-08-05T22:40:55.901Z,98434.16
2017-08-05T22:43:25.389Z,98440.80
2017-08-05T22:45:54.836Z,98449.12
2017-08-05T22:48:24.282Z,98461.47
2017-08-05T22:50:53.720Z,98467.47
2017-08-05T22:53:23.199Z,98479.22
2017-08-05T22:55:52.698Z,98489.74
2017-08-05T22:58:22.158Z,98497.20
2017-08-05T23:00:51.621Z,98499.74
2017-08-05T23:03:21.062Z,98503.66
2017-08-05T23:05:50.506Z,98521.20
2017-08-05T23:08:19.957Z,98535.98
2017-08-05T23:10:49.410Z,98542.75
2017-08-05T23:13:18.853Z,98551.98
2017-08-05T23:15:48.144Z,98558.59
2017-08-05T23:18:17.679Z,98571.36
2017-08-05T23:20:47.158Z,98571.52
2017-08-05T23:23:16.593Z,98568.48
2017-08-05T23:25:46.041Z,98607.34
2017-08-05T23:28:15.289Z,98630.06
2017-08-05T23:30:45.049Z,98619.77
2017-08-05T23:33:14.516Z,98592.96
2017-08-05T23:35:44.003Z,98613.95
2017-08-05T23:38:13.422Z,98638.58
2017-08-05T23:40:42.872Z,98652.19
2017-08-05T23:43:12.394Z,98644.81
2017-08-05T23:45:41.876Z,98646.26
2017-08-05T23:48:11.315Z,98642.30
2017-08-05T23:50:40.762Z,98642.91
2017-08-05T23:53:10.209Z,98633.78
2017-08-05T23:55:39.813Z,98659.27
2017-08-05T23:58:09.286Z,98685.24
